sensor_id;sensor_type;location;lat;lon;timestamp;pressure;altitude;pressure_sealevel;temperature;humidity
64460;BME280;50828;53.756;21.140;2022-08-21T00:04:47;99589.48;;;23.11;52.14
64460;BME280;50828;53.756;21.140;2022-08-21T00:10:01;99585.14;;;23.06;52.30
64460;BME280;50828;53.756;21.140;2022-08-21T00:15:08;99582.34;;;23.01;52.46
64460;BME280;50828;53.756;21.140;2022-08-21T00:20:15;99566.17;;;22.96;52.43
64460;BME280;50828;53.756;21.140;2022-08-21T00:25:20;99560.61;;;22.92;52.66
64460;BME280;50828;53.756;21.140;2022-08-21T00:30:29;99551.77;;;22.86;52.64
64460;BME280;50828;53.756;21.140;2022-08-21T00:35:37;99545.29;;;22.81;52.76
64460;BME280;50828;53.756;21.140;2022-08-21T00:40:44;99538.17;;;22.76;52.89
64460;BME280;50828;53.756;21.140;2022-08-21T00:45:50;99535.50;;;22.70;52.95
64460;BME280;50828;53.756;21.140;2022-08-21T00:50:58;99538.83;;;22.66;53.14
64460;BME280;50828;53.756;21.140;2022-08-21T00:56:05;99535.02;;;22.61;53.25
64460;BME280;50828;53.756;21.140;2022-08-21T01:01:13;99533.96;;;22.57;53.41
64460;BME280;50828;53.756;21.140;2022-08-21T01:06:21;99535.44;;;22.53;53.38
64460;BME280;50828;53.756;21.140;2022-08-21T01:11:26;99525.81;;;22.49;53.62
64460;BME280;50828;53.756;21.140;2022-08-21T01:16:32;99518.81;;;22.45;53.78
64460;BME280;50828;53.756;21.140;2022-08-21T01:21:38;99507.48;;;22.42;53.89
64460;BME280;50828;53.756;21.140;2022-08-21T01:26:45;99495.36;;;22.38;53.97
64460;BME280;50828;53.756;21.140;2022-08-21T01:31:51;99495.02;;;22.34;54.09
64460;BME280;50828;53.756;21.140;2022-08-21T01:36:57;99503.69;;;22.30;54.20
64460;BME280;50828;53.756;21.140;2022-08-21T01:42:02;99508.98;;;22.25;54.19
64460;BME280;50828;53.756;21.140;2022-08-21T01:47:09;99518.26;;;22.22;54.22
64460;BME280;50828;53.756;21.140;2022-08-21T01:52:15;99520.94;;;22.18;54.35
64460;BME280;50828;53.756;21.140;2022-08-21T01:57:21;99518.91;;;22.13;54.49
64460;BME280;50828;53.756;21.140;2022-08-21T02:02:28;99517.00;;;22.10;54.56
64460;BME280;50828;53.756;21.140;2022-08-21T02:07:37;99510.92;;;22.08;54.61
64460;BME280;50828;53.756;21.140;2022-08-21T02:12:43;99505.28;;;22.06;54.67
64460;BME280;50828;53.756;21.140;2022-08-21T02:17:49;99507.70;;;22.03;54.83
64460;BME280;50828;53.756;21.140;2022-08-21T02:22:55;99502.09;;;22.00;54.90
64460;BME280;50828;53.756;21.140;2022-08-21T02:28:02;99495.70;;;21.97;54.96
64460;BME280;50828;53.756;21.140;2022-08-21T02:33:08;99488.90;;;21.94;54.92
64460;BME280;50828;53.756;21.140;2022-08-21T02:38:16;99488.14;;;21.89;55.09
64460;BME280;50828;53.756;21.140;2022-08-21T02:43:24;99497.69;;;21.86;55.20
64460;BME280;50828;53.756;21.140;2022-08-21T02:48:31;99504.16;;;21.82;55.16
64460;BME280;50828;53.756;21.140;2022-08-21T02:53:37;99501.96;;;21.79;55.25
64460;BME280;50828;53.756;21.140;2022-08-21T02:58:44;99487.95;;;21.75;55.25
64460;BME280;50828;53.756;21.140;2022-08-21T03:03:49;99489.55;;;21.72;55.33
64460;BME280;50828;53.756;21.140;2022-08-21T03:08:55;99492.83;;;21.68;55.46
64460;BME280;50828;53.756;21.140;2022-08-21T03:14:01;99496.98;;;21.64;55.63
64460;BME280;50828;53.756;21.140;2022-08-21T03:19:08;99496.11;;;21.58;55.85
64460;BME280;50828;53.756;21.140;2022-08-21T03:24:14;99494.70;;;21.52;55.98
64460;BME280;50828;53.756;21.140;2022-08-21T03:29:23;99487.46;;;21.45;56.06
64460;BME280;50828;53.756;21.140;2022-08-21T03:34:28;99492.05;;;21.40;56.21
64460;BME280;50828;53.756;21.140;2022-08-21T03:39:34;99496.30;;;21.35;56.33
64460;BME280;50828;53.756;21.140;2022-08-21T03:44:40;99494.89;;;21.29;56.51
64460;BME280;50828;53.756;21.140;2022-08-21T03:49:45;99498.27;;;21.24;56.53
64460;BME280;50828;53.756;21.140;2022-08-21T03:54:52;99493.45;;;21.16;56.76
64460;BME280;50828;53.756;21.140;2022-08-21T03:59:57;99498.83;;;21.12;56.87
64460;BME280;50828;53.756;21.140;2022-08-21T04:05:04;99494.98;;;21.07;57.01
64460;BME280;50828;53.756;21.140;2022-08-21T04:10:10;99495.79;;;21.02;57.01
64460;BME280;50828;53.756;21.140;2022-08-21T04:15:16;99492.09;;;20.98;57.14
64460;BME280;50828;53.756;21.140;2022-08-21T04:20:22;99496.20;;;20.94;57.40
64460;BME280;50828;53.756;21.140;2022-08-21T04:25:28;99491.80;;;20.89;57.55
64460;BME280;50828;53.756;21.140;2022-08-21T04:30:34;99491.94;;;20.86;57.70
64460;BME280;50828;53.756;21.140;2022-08-21T04:35:39;99493.28;;;20.81;57.81
64460;BME280;50828;53.756;21.140;2022-08-21T04:40:45;99496.23;;;20.78;58.02
64460;BME280;50828;53.756;21.140;2022-08-21T04:45:52;99498.59;;;20.76;58.10
64460;BME280;50828;53.756;21.140;2022-08-21T04:50:59;99502.68;;;20.74;58.20
64460;BME280;50828;53.756;21.140;2022-08-21T04:56:07;99505.81;;;20.71;58.46
64460;BME280;50828;53.756;21.140;2022-08-21T05:01:14;99509.61;;;20.70;58.52
64460;BME280;50828;53.756;21.140;2022-08-21T05:06:21;99510.59;;;20.71;58.89
64460;BME280;50828;53.756;21.140;2022-08-21T05:11:27;99509.24;;;20.75;59.22
64460;BME280;50828;53.756;21.140;2022-08-21T05:16:32;99510.50;;;20.84;59.37
64460;BME280;50828;53.756;21.140;2022-08-21T05:21:41;99513.67;;;20.97;59.53
64460;BME280;50828;53.756;21.140;2022-08-21T05:26:47;99518.84;;;21.10;59.64
64460;BME280;50828;53.756;21.140;2022-08-21T05:31:52;99522.80;;;21.25;59.58
64460;BME280;50828;53.756;21.140;2022-08-21T05:36:58;99527.09;;;21.41;59.36
64460;BME280;50828;53.756;21.140;2022-08-21T05:42:09;99525.27;;;21.58;59.38
64460;BME280;50828;53.756;21.140;2022-08-21T05:47:15;99527.55;;;21.75;59.05
64460;BME280;50828;53.756;21.140;2022-08-21T05:52:21;99527.96;;;21.92;58.73
64460;BME280;50828;53.756;21.140;2022-08-21T05:57:27;99531.03;;;22.08;58.53
64460;BME280;50828;53.756;21.140;2022-08-21T06:02:33;99534.42;;;22.23;58.23
64460;BME280;50828;53.756;21.140;2022-08-21T06:07:38;99533.05;;;22.36;58.18
64460;BME280;50828;53.756;21.140;2022-08-21T06:12:44;99537.86;;;22.45;57.90
64460;BME280;50828;53.756;21.140;2022-08-21T06:17:49;99539.59;;;22.55;57.66
64460;BME280;50828;53.756;21.140;2022-08-21T06:22:55;99532.71;;;22.63;57.47
64460;BME280;50828;53.756;21.140;2022-08-21T06:28:04;99532.52;;;22.70;57.44
64460;BME280;50828;53.756;21.140;2022-08-21T06:33:10;99535.34;;;22.78;57.25
64460;BME280;50828;53.756;21.140;2022-08-21T06:38:20;99528.05;;;22.86;57.14
64460;BME280;50828;53.756;21.140;2022-08-21T06:43:25;99524.85;;;22.94;57.11
64460;BME280;50828;53.756;21.140;2022-08-21T06:48:42;99522.98;;;23.04;57.17
64460;BME280;50828;53.756;21.140;2022-08-21T06:53:48;99518.10;;;23.14;56.84
64460;BME280;50828;53.756;21.140;2022-08-21T06:58:53;99519.80;;;23.21;56.68
64460;BME280;50828;53.756;21.140;2022-08-21T07:03:59;99518.73;;;23.28;56.56
64460;BME280;50828;53.756;21.140;2022-08-21T07:09:04;99520.52;;;23.34;56.80
64460;BME280;50828;53.756;21.140;2022-08-21T07:14:10;99522.45;;;23.41;56.75
64460;BME280;50828;53.756;21.140;2022-08-21T07:19:24;99520.26;;;23.47;56.87
64460;BME280;50828;53.756;21.140;2022-08-21T07:24:30;99514.87;;;23.52;56.81
64460;BME280;50828;53.756;21.140;2022-08-21T07:29:36;99507.05;;;23.60;56.90
64460;BME280;50828;53.756;21.140;2022-08-21T07:34:41;99501.98;;;23.71;56.77
64460;BME280;50828;53.756;21.140;2022-08-21T07:39:47;99489.12;;;23.84;56.38
64460;BME280;50828;53.756;21.140;2022-08-21T07:44:56;99487.44;;;23.98;56.15
64460;BME280;50828;53.756;21.140;2022-08-21T07:50:01;99487.77;;;24.12;55.97
64460;BME280;50828;53.756;21.140;2022-08-21T07:55:08;99488.86;;;24.25;55.75
64460;BME280;50828;53.756;21.140;2022-08-21T08:00:15;99485.20;;;24.37;55.40
64460;BME280;50828;53.756;21.140;2022-08-21T08:05:22;99483.70;;;24.48;55.26
64460;BME280;50828;53.756;21.140;2022-08-21T08:10:27;99480.66;;;24.58;55.03
64460;BME280;50828;53.756;21.140;2022-08-21T08:15:33;99483.00;;;24.68;54.82
64460;BME280;50828;53.756;21.140;2022-08-21T08:20:40;99482.57;;;24.79;54.73
64460;BME280;50828;53.756;21.140;2022-08-21T08:25:45;99480.03;;;24.88;54.40
64460;BME280;50828;53.756;21.140;2022-08-21T08:30:51;99472.19;;;24.99;54.16
64460;BME280;50828;53.756;21.140;2022-08-21T08:35:56;99467.85;;;25.11;53.99
64460;BME280;50828;53.756;21.140;2022-08-21T08:41:10;99470.48;;;25.26;53.84
64460;BME280;50828;53.756;21.140;2022-08-21T08:46:17;99470.77;;;25.40;53.60
64460;BME280;50828;53.756;21.140;2022-08-21T08:51:26;99469.16;;;25.56;53.06
64460;BME280;50828;53.756;21.140;2022-08-21T08:56:35;99463.65;;;25.69;52.95
64460;BME280;50828;53.756;21.140;2022-08-21T09:01:41;99464.35;;;25.84;52.52
64460;BME280;50828;53.756;21.140;2022-08-21T09:06:53;99462.80;;;25.95;52.12
64460;BME280;50828;53.756;21.140;2022-08-21T09:12:02;99461.31;;;26.07;51.60
64460;BME280;50828;53.756;21.140;2022-08-21T09:17:12;99461.36;;;26.19;51.31
64460;BME280;50828;53.756;21.140;2022-08-21T09:22:23;99459.04;;;26.30;51.06
64460;BME280;50828;53.756;21.140;2022-08-21T09:27:34;99451.02;;;26.40;50.75
64460;BME280;50828;53.756;21.140;2022-08-21T09:32:40;99455.19;;;26.52;50.59
64460;BME280;50828;53.756;21.140;2022-08-21T09:37:48;99450.81;;;26.62;50.30
64460;BME280;50828;53.756;21.140;2022-08-21T09:42:57;99451.35;;;26.70;50.05
64460;BME280;50828;53.756;21.140;2022-08-21T09:48:10;99443.45;;;26.73;49.76
64460;BME280;50828;53.756;21.140;2022-08-21T09:53:19;99448.51;;;26.75;49.48
64460;BME280;50828;53.756;21.140;2022-08-21T09:58:31;99452.15;;;26.77;49.40
64460;BME280;50828;53.756;21.140;2022-08-21T10:03:37;99448.09;;;26.76;49.33
64460;BME280;50828;53.756;21.140;2022-08-21T10:08:43;99444.60;;;26.76;49.30
64460;BME280;50828;53.756;21.140;2022-08-21T10:13:50;99440.73;;;26.77;49.32
64460;BME280;50828;53.756;21.140;2022-08-21T10:19:05;99435.86;;;26.80;49.24
64460;BME280;50828;53.756;21.140;2022-08-21T10:24:16;99432.66;;;26.82;49.26
64460;BME280;50828;53.756;21.140;2022-08-21T10:29:38;99430.64;;;26.87;49.17
64460;BME280;50828;53.756;21.140;2022-08-21T10:34:50;99429.19;;;26.90;48.77
64460;BME280;50828;53.756;21.140;2022-08-21T10:40:02;99427.68;;;26.92;48.51
64460;BME280;50828;53.756;21.140;2022-08-21T10:45:14;99424.19;;;26.93;48.44
64460;BME280;50828;53.756;21.140;2022-08-21T10:50:25;99424.91;;;26.94;48.33
64460;BME280;50828;53.756;21.140;2022-08-21T10:55:33;99423.50;;;26.97;48.12
64460;BME280;50828;53.756;21.140;2022-08-21T11:00:41;99424.12;;;26.99;48.05
64460;BME280;50828;53.756;21.140;2022-08-21T11:05:50;99427.38;;;27.03;47.94
64460;BME280;50828;53.756;21.140;2022-08-21T11:10:57;99426.74;;;27.05;47.77
64460;BME280;50828;53.756;21.140;2022-08-21T11:16:09;99422.27;;;27.06;47.67
64460;BME280;50828;53.756;21.140;2022-08-21T11:21:27;99425.04;;;27.08;47.62
64460;BME280;50828;53.756;21.140;2022-08-21T11:26:37;99424.77;;;27.09;47.48
64460;BME280;50828;53.756;21.140;2022-08-21T11:31:47;99426.64;;;27.12;47.28
64460;BME280;50828;53.756;21.140;2022-08-21T11:36:57;99423.34;;;27.12;47.27
64460;BME280;50828;53.756;21.140;2022-08-21T11:42:07;99423.48;;;27.15;47.27
64460;BME280;50828;53.756;21.140;2022-08-21T11:47:18;99423.26;;;27.17;47.22
64460;BME280;50828;53.756;21.140;2022-08-21T11:52:25;99423.45;;;27.21;47.08
64460;BME280;50828;53.756;21.140;2022-08-21T11:57:32;99421.27;;;27.24;47.08
64460;BME280;50828;53.756;21.140;2022-08-21T12:02:41;99419.55;;;27.28;47.04
64460;BME280;50828;53.756;21.140;2022-08-21T12:07:48;99423.30;;;27.32;46.68
64460;BME280;50828;53.756;21.140;2022-08-21T12:13:09;99425.35;;;27.36;46.56
64460;BME280;50828;53.756;21.140;2022-08-21T12:18:23;99421.72;;;27.39;46.35
64460;BME280;50828;53.756;21.140;2022-08-21T12:23:30;99423.95;;;27.41;46.29
64460;BME280;50828;53.756;21.140;2022-08-21T12:28:36;99424.71;;;27.43;46.27
64460;BME280;50828;53.756;21.140;2022-08-21T12:33:42;99427.77;;;27.43;46.23
64460;BME280;50828;53.756;21.140;2022-08-21T12:38:49;99431.14;;;27.42;46.17
64460;BME280;50828;53.756;21.140;2022-08-21T12:43:57;99429.63;;;27.41;46.17
64460;BME280;50828;53.756;21.140;2022-08-21T12:49:06;99426.58;;;27.38;46.04
64460;BME280;50828;53.756;21.140;2022-08-21T12:54:21;99428.56;;;27.34;46.15
64460;BME280;50828;53.756;21.140;2022-08-21T12:59:27;99428.39;;;27.30;46.14
64460;BME280;50828;53.756;21.140;2022-08-21T13:04:35;99424.62;;;27.25;46.38
64460;BME280;50828;53.756;21.140;2022-08-21T13:09:44;99429.66;;;27.21;46.43
64460;BME280;50828;53.756;21.140;2022-08-21T13:14:51;99431.54;;;27.16;46.60
64460;BME280;50828;53.756;21.140;2022-08-21T13:20:01;99427.54;;;27.10;46.59
64460;BME280;50828;53.756;21.140;2022-08-21T13:25:08;99427.32;;;27.04;46.66
64460;BME280;50828;53.756;21.140;2022-08-21T13:30:20;99426.66;;;26.99;46.90
64460;BME280;50828;53.756;21.140;2022-08-21T13:35:28;99429.75;;;26.93;47.03
64460;BME280;50828;53.756;21.140;2022-08-21T13:40:40;99426.34;;;26.87;47.24
64460;BME280;50828;53.756;21.140;2022-08-21T13:45:49;99428.66;;;26.83;47.26
64460;BME280;50828;53.756;21.140;2022-08-21T13:50:54;99431.31;;;26.80;47.47
64460;BME280;50828;53.756;21.140;2022-08-21T13:56:01;99434.06;;;26.77;47.53
64460;BME280;50828;53.756;21.140;2022-08-21T14:01:15;99435.88;;;26.75;47.40
64460;BME280;50828;53.756;21.140;2022-08-21T14:06:24;99437.23;;;26.74;47.57
64460;BME280;50828;53.756;21.140;2022-08-21T14:11:32;99437.45;;;26.76;47.58
64460;BME280;50828;53.756;21.140;2022-08-21T14:16:43;99432.94;;;26.77;47.41
64460;BME280;50828;53.756;21.140;2022-08-21T14:21:49;99429.83;;;26.81;47.45
64460;BME280;50828;53.756;21.140;2022-08-21T14:26:55;99431.13;;;26.86;47.29
64460;BME280;50828;53.756;21.140;2022-08-21T14:32:09;99430.40;;;26.90;47.06
64460;BME280;50828;53.756;21.140;2022-08-21T14:37:27;99434.29;;;26.96;46.92
64460;BME280;50828;53.756;21.140;2022-08-21T14:42:33;99436.79;;;27.00;46.48
64460;BME280;50828;53.756;21.140;2022-08-21T14:47:42;99434.79;;;27.01;46.33
64460;BME280;50828;53.756;21.140;2022-08-21T14:52:47;99431.04;;;27.02;46.24
64460;BME280;50828;53.756;21.140;2022-08-21T14:57:53;99429.65;;;27.02;45.98
64460;BME280;50828;53.756;21.140;2022-08-21T15:02:59;99428.25;;;27.00;45.87
64460;BME280;50828;53.756;21.140;2022-08-21T15:08:05;99430.84;;;26.98;45.82
64460;BME280;50828;53.756;21.140;2022-08-21T15:13:10;99427.96;;;26.95;45.64
64460;BME280;50828;53.756;21.140;2022-08-21T15:18:17;99423.12;;;26.91;45.68
64460;BME280;50828;53.756;21.140;2022-08-21T15:23:23;99421.04;;;26.89;45.72
64460;BME280;50828;53.756;21.140;2022-08-21T15:28:29;99420.23;;;26.85;45.65
64460;BME280;50828;53.756;21.140;2022-08-21T15:33:34;99419.91;;;26.83;45.78
64460;BME280;50828;53.756;21.140;2022-08-21T15:38:40;99416.02;;;26.80;45.88
64460;BME280;50828;53.756;21.140;2022-08-21T15:43:47;99419.42;;;26.79;45.82
64460;BME280;50828;53.756;21.140;2022-08-21T15:48:54;99417.13;;;26.76;45.95
64460;BME280;50828;53.756;21.140;2022-08-21T15:54:02;99414.48;;;26.74;46.02
64460;BME280;50828;53.756;21.140;2022-08-21T15:59:12;99415.04;;;26.73;46.13
64460;BME280;50828;53.756;21.140;2022-08-21T16:04:21;99420.41;;;26.73;46.19
64460;BME280;50828;53.756;21.140;2022-08-21T16:09:27;99422.83;;;26.73;46.10
64460;BME280;50828;53.756;21.140;2022-08-21T16:14:33;99424.38;;;26.71;46.29
64460;BME280;50828;53.756;21.140;2022-08-21T16:19:41;99428.94;;;26.69;46.50
64460;BME280;50828;53.756;21.140;2022-08-21T16:24:46;99432.95;;;26.68;46.48
64460;BME280;50828;53.756;21.140;2022-08-21T16:29:52;99430.20;;;26.64;46.56
64460;BME280;50828;53.756;21.140;2022-08-21T16:34:58;99430.46;;;26.61;46.68
64460;BME280;50828;53.756;21.140;2022-08-21T16:40:06;99431.15;;;26.57;46.73
64460;BME280;50828;53.756;21.140;2022-08-21T16:45:12;99428.45;;;26.50;46.95
64460;BME280;50828;53.756;21.140;2022-08-21T16:50:21;99428.35;;;26.42;46.90
64460;BME280;50828;53.756;21.140;2022-08-21T16:55:27;99433.15;;;26.35;47.05
64460;BME280;50828;53.756;21.140;2022-08-21T17:00:33;99439.60;;;26.28;47.23
64460;BME280;50828;53.756;21.140;2022-08-21T17:05:38;99450.44;;;26.20;47.50
64460;BME280;50828;53.756;21.140;2022-08-21T17:10:46;99456.20;;;26.12;47.41
64460;BME280;50828;53.756;21.140;2022-08-21T17:15:52;99464.80;;;26.05;47.71
64460;BME280;50828;53.756;21.140;2022-08-21T17:20:58;99480.29;;;25.97;47.89
64460;BME280;50828;53.756;21.140;2022-08-21T17:26:04;99484.27;;;25.89;47.93
64460;BME280;50828;53.756;21.140;2022-08-21T17:31:15;99487.05;;;25.80;47.99
64460;BME280;50828;53.756;21.140;2022-08-21T17:36:27;99492.76;;;25.73;48.16
64460;BME280;50828;53.756;21.140;2022-08-21T17:41:34;99490.92;;;25.66;48.26
64460;BME280;50828;53.756;21.140;2022-08-21T17:46:40;99492.44;;;25.57;48.45
64460;BME280;50828;53.756;21.140;2022-08-21T17:51:45;99493.50;;;25.47;48.46
64460;BME280;50828;53.756;21.140;2022-08-21T17:56:51;99501.21;;;25.38;48.63
64460;BME280;50828;53.756;21.140;2022-08-21T18:01:58;99516.55;;;25.30;48.64
64460;BME280;50828;53.756;21.140;2022-08-21T18:07:05;99518.60;;;25.19;48.82
64460;BME280;50828;53.756;21.140;2022-08-21T18:12:11;99521.39;;;25.09;49.05
64460;BME280;50828;53.756;21.140;2022-08-21T18:17:18;99525.48;;;24.99;49.12
64460;BME280;50828;53.756;21.140;2022-08-21T18:22:25;99525.27;;;24.86;49.36
64460;BME280;50828;53.756;21.140;2022-08-21T18:27:30;99529.23;;;24.82;49.42
64460;BME280;50828;53.756;21.140;2022-08-21T18:32:36;99527.97;;;24.75;49.65
64460;BME280;50828;53.756;21.140;2022-08-21T18:37:42;99529.31;;;24.67;49.65
64460;BME280;50828;53.756;21.140;2022-08-21T18:42:47;99527.34;;;24.61;49.83
64460;BME280;50828;53.756;21.140;2022-08-21T18:47:58;99531.48;;;24.54;50.03
64460;BME280;50828;53.756;21.140;2022-08-21T18:53:07;99536.91;;;24.47;50.22
64460;BME280;50828;53.756;21.140;2022-08-21T18:58:30;99531.86;;;24.40;50.32
64460;BME280;50828;53.756;21.140;2022-08-21T19:03:35;99531.34;;;24.33;50.61
64460;BME280;50828;53.756;21.140;2022-08-21T19:08:41;99526.60;;;24.27;50.61
64460;BME280;50828;53.756;21.140;2022-08-21T19:13:47;99528.68;;;24.19;50.87
64460;BME280;50828;53.756;21.140;2022-08-21T19:18:54;99530.46;;;24.11;50.96
64460;BME280;50828;53.756;21.140;2022-08-21T19:24:03;99534.90;;;24.03;51.16
64460;BME280;50828;53.756;21.140;2022-08-21T19:29:20;99546.45;;;23.94;51.38
64460;BME280;50828;53.756;21.140;2022-08-21T19:34:37;99548.89;;;23.84;51.77
64460;BME280;50828;53.756;21.140;2022-08-21T19:39:44;99550.21;;;23.75;52.26
64460;BME280;50828;53.756;21.140;2022-08-21T19:44:53;99551.13;;;23.65;52.60
64460;BME280;50828;53.756;21.140;2022-08-21T19:50:05;99549.88;;;23.54;52.85
64460;BME280;50828;53.756;21.140;2022-08-21T19:55:20;99558.65;;;23.44;53.16
64460;BME280;50828;53.756;21.140;2022-08-21T20:00:26;99563.59;;;23.36;53.28
64460;BME280;50828;53.756;21.140;2022-08-21T20:05:32;99565.77;;;23.28;53.61
64460;BME280;50828;53.756;21.140;2022-08-21T20:10:58;99567.76;;;23.21;53.91
64460;BME280;50828;53.756;21.140;2022-08-21T20:16:24;99568.91;;;23.14;54.07
64460;BME280;50828;53.756;21.140;2022-08-21T20:21:32;99570.17;;;23.06;54.09
64460;BME280;50828;53.756;21.140;2022-08-21T20:26:46;99573.39;;;22.99;54.25
64460;BME280;50828;53.756;21.140;2022-08-21T20:31:52;99573.48;;;22.91;54.38
64460;BME280;50828;53.756;21.140;2022-08-21T20:36:58;99565.67;;;22.83;54.71
64460;BME280;50828;53.756;21.140;2022-08-21T20:42:04;99565.33;;;22.74;55.03
64460;BME280;50828;53.756;21.140;2022-08-21T20:47:10;99569.35;;;22.66;55.29
64460;BME280;50828;53.756;21.140;2022-08-21T20:52:16;99571.64;;;22.57;55.40
64460;BME280;50828;53.756;21.140;2022-08-21T20:57:24;99570.83;;;22.47;55.43
64460;BME280;50828;53.756;21.140;2022-08-21T21:02:33;99573.30;;;22.39;55.37
64460;BME280;50828;53.756;21.140;2022-08-21T21:07:49;99578.34;;;22.29;55.29
64460;BME280;50828;53.756;21.140;2022-08-21T21:12:58;99583.11;;;22.19;55.44
64460;BME280;50828;53.756;21.140;2022-08-21T21:18:08;99584.30;;;22.08;55.75
64460;BME280;50828;53.756;21.140;2022-08-21T21:23:20;99586.47;;;21.99;55.44
64460;BME280;50828;53.756;21.140;2022-08-21T21:28:29;99592.65;;;21.88;55.55
64460;BME280;50828;53.756;21.140;2022-08-21T21:33:37;99597.89;;;21.78;55.88
64460;BME280;50828;53.756;21.140;2022-08-21T21:38:45;99595.17;;;21.69;56.36
64460;BME280;50828;53.756;21.140;2022-08-21T21:44:03;99595.36;;;21.60;56.82
64460;BME280;50828;53.756;21.140;2022-08-21T21:49:17;99593.35;;;21.51;56.98
64460;BME280;50828;53.756;21.140;2022-08-21T21:59:51;99599.30;;;21.33;57.12
64460;BME280;50828;53.756;21.140;2022-08-21T22:05:05;99602.64;;;21.24;57.27
64460;BME280;50828;53.756;21.140;2022-08-21T22:10:14;99597.38;;;21.13;57.21
64460;BME280;50828;53.756;21.140;2022-08-21T22:15:34;99590.80;;;21.02;57.12
64460;BME280;50828;53.756;21.140;2022-08-21T22:20:44;99592.36;;;20.93;57.50
64460;BME280;50828;53.756;21.140;2022-08-21T22:25:53;99588.38;;;20.84;57.58
64460;BME280;50828;53.756;21.140;2022-08-21T22:31:11;99590.02;;;20.74;57.83
64460;BME280;50828;53.756;21.140;2022-08-21T22:36:20;99593.02;;;20.66;58.24
64460;BME280;50828;53.756;21.140;2022-08-21T22:41:30;99596.50;;;20.59;58.73
64460;BME280;50828;53.756;21.140;2022-08-21T22:46:38;99596.62;;;20.52;59.10
64460;BME280;50828;53.756;21.140;2022-08-21T22:51:46;99601.48;;;20.47;59.28
64460;BME280;50828;53.756;21.140;2022-08-21T22:56:57;99593.58;;;20.42;59.21
64460;BME280;50828;53.756;21.140;2022-08-21T23:02:06;99593.34;;;20.39;59.70
64460;BME280;50828;53.756;21.140;2022-08-21T23:07:28;99594.13;;;20.35;60.36
64460;BME280;50828;53.756;21.140;2022-08-21T23:12:36;99588.71;;;20.34;60.97
64460;BME280;50828;53.756;21.140;2022-08-21T23:18:04;99591.23;;;20.34;61.62
64460;BME280;50828;53.756;21.140;2022-08-21T23:23:16;99595.73;;;20.33;62.01
64460;BME280;50828;53.756;21.140;2022-08-21T23:28:29;99598.75;;;20.34;62.39
64460;BME280;50828;53.756;21.140;2022-08-21T23:33:56;99605.45;;;20.33;62.66
64460;BME280;50828;53.756;21.140;2022-08-21T23:39:11;99610.02;;;20.33;63.02
64460;BME280;50828;53.756;21.140;2022-08-21T23:44:29;99607.63;;;20.34;63.31
64460;BME280;50828;53.756;21.140;2022-08-21T23:49:40;99605.90;;;20.34;63.47
64460;BME280;50828;53.756;21.140;2022-08-21T23:54:55;99608.44;;;20.35;63.64
